sensor_id;sensor_type;location;lat;lon;timestamp;temperature;humidity
18998;DHT22;9632;51.018;4.284;2023-05-19T00:01:12;12.30;99.90
18998;DHT22;9632;51.018;4.284;2023-05-19T00:03:52;12.30;99.90
18998;DHT22;9632;51.018;4.284;2023-05-19T00:06:23;12.30;99.90
18998;DHT22;9632;51.018;4.284;2023-05-19T00:08:51;12.20;99.90
18998;DHT22;9632;51.018;4.284;2023-05-19T00:11:20;12.20;99.90
18998;DHT22;9632;51.018;4.284;2023-05-19T00:13:47;12.20;99.90
18998;DHT22;9632;51.018;4.284;2023-05-19T00:16:14;12.20;99.90
18998;DHT22;9632;51.018;4.284;2023-05-19T00:18:39;12.20;99.90
18998;DHT22;9632;51.018;4.284;2023-05-19T00:21:06;12.10;99.90
18998;DHT22;9632;51.018;4.284;2023-05-19T00:23:31;12.10;99.90
18998;DHT22;9632;51.018;4.284;2023-05-19T00:25:57;12.10;99.90
18998;DHT22;9632;51.018;4.284;2023-05-19T00:28:23;12.10;99.90
18998;DHT22;9632;51.018;4.284;2023-05-19T00:30:50;12.00;99.90
18998;DHT22;9632;51.018;4.284;2023-05-19T00:33:15;12.00;99.90
18998;DHT22;9632;51.018;4.284;2023-05-19T00:35:41;11.90;99.90
18998;DHT22;9632;51.018;4.284;2023-05-19T00:38:06;11.90;99.90
18998;DHT22;9632;51.018;4.284;2023-05-19T00:40:34;11.90;99.90
18998;DHT22;9632;51.018;4.284;2023-05-19T00:43:00;11.90;99.90
18998;DHT22;9632;51.018;4.284;2023-05-19T00:45:27;11.80;99.90
18998;DHT22;9632;51.018;4.284;2023-05-19T00:47:53;11.80;99.90
18998;DHT22;9632;51.018;4.284;2023-05-19T00:50:18;11.80;99.90
18998;DHT22;9632;51.018;4.284;2023-05-19T00:52:44;11.70;99.90
18998;DHT22;9632;51.018;4.284;2023-05-19T00:55:10;11.70;99.90
18998;DHT22;9632;51.018;4.284;2023-05-19T00:57:36;11.70;99.90
18998;DHT22;9632;51.018;4.284;2023-05-19T01:00:03;11.70;99.90
18998;DHT22;9632;51.018;4.284;2023-05-19T01:02:29;11.70;99.90
18998;DHT22;9632;51.018;4.284;2023-05-19T01:04:56;11.70;99.90
18998;DHT22;9632;51.018;4.284;2023-05-19T01:07:22;11.70;99.90
18998;DHT22;9632;51.018;4.284;2023-05-19T01:09:48;11.60;99.90
18998;DHT22;9632;51.018;4.284;2023-05-19T01:12:14;11.60;99.90
18998;DHT22;9632;51.018;4.284;2023-05-19T01:14:41;11.60;99.90
18998;DHT22;9632;51.018;4.284;2023-05-19T01:19:49;11.60;99.90
18998;DHT22;9632;51.018;4.284;2023-05-19T01:31:22;11.40;99.90
18998;DHT22;9632;51.018;4.284;2023-05-19T01:33:51;11.40;99.90
18998;DHT22;9632;51.018;4.284;2023-05-19T01:36:19;11.40;99.90
18998;DHT22;9632;51.018;4.284;2023-05-19T01:38:48;11.30;99.90
18998;DHT22;9632;51.018;4.284;2023-05-19T01:41:14;11.30;99.90
18998;DHT22;9632;51.018;4.284;2023-05-19T01:43:41;11.30;99.90
18998;DHT22;9632;51.018;4.284;2023-05-19T01:46:07;11.30;99.90
18998;DHT22;9632;51.018;4.284;2023-05-19T01:48:33;11.30;99.90
18998;DHT22;9632;51.018;4.284;2023-05-19T01:50:59;11.30;99.90
18998;DHT22;9632;51.018;4.284;2023-05-19T01:53:25;11.20;99.90
18998;DHT22;9632;51.018;4.284;2023-05-19T01:55:58;11.20;99.90
18998;DHT22;9632;51.018;4.284;2023-05-19T02:01:20;11.20;99.90
18998;DHT22;9632;51.018;4.284;2023-05-19T02:07:00;11.10;99.90
18998;DHT22;9632;51.018;4.284;2023-05-19T02:09:37;11.10;99.90
18998;DHT22;9632;51.018;4.284;2023-05-19T02:12:27;11.10;99.90
18998;DHT22;9632;51.018;4.284;2023-05-19T02:15:14;11.00;99.90
18998;DHT22;9632;51.018;4.284;2023-05-19T02:17:42;11.00;99.90
18998;DHT22;9632;51.018;4.284;2023-05-19T02:20:12;11.00;99.90
18998;DHT22;9632;51.018;4.284;2023-05-19T02:22:38;11.00;99.90
18998;DHT22;9632;51.018;4.284;2023-05-19T02:25:04;11.00;99.90
18998;DHT22;9632;51.018;4.284;2023-05-19T02:27:30;11.00;99.90
18998;DHT22;9632;51.018;4.284;2023-05-19T02:29:56;11.00;99.90
18998;DHT22;9632;51.018;4.284;2023-05-19T02:32:22;11.00;99.90
18998;DHT22;9632;51.018;4.284;2023-05-19T02:34:47;11.00;99.90
18998;DHT22;9632;51.018;4.284;2023-05-19T02:37:14;11.00;99.90
18998;DHT22;9632;51.018;4.284;2023-05-19T02:39:40;11.00;99.90
18998;DHT22;9632;51.018;4.284;2023-05-19T02:42:06;11.00;99.90
18998;DHT22;9632;51.018;4.284;2023-05-19T02:44:32;11.00;99.90
18998;DHT22;9632;51.018;4.284;2023-05-19T02:46:57;11.10;99.90
18998;DHT22;9632;51.018;4.284;2023-05-19T02:49:23;11.10;99.90
18998;DHT22;9632;51.018;4.284;2023-05-19T02:51:49;11.10;99.90
18998;DHT22;9632;51.018;4.284;2023-05-19T02:54:14;11.10;99.90
18998;DHT22;9632;51.018;4.284;2023-05-19T02:56:40;11.10;99.90
18998;DHT22;9632;51.018;4.284;2023-05-19T02:59:06;11.10;99.90
18998;DHT22;9632;51.018;4.284;2023-05-19T03:01:31;11.10;99.90
18998;DHT22;9632;51.018;4.284;2023-05-19T03:03:58;11.10;99.90
18998;DHT22;9632;51.018;4.284;2023-05-19T03:06:23;11.10;99.90
18998;DHT22;9632;51.018;4.284;2023-05-19T03:08:49;11.10;99.90
18998;DHT22;9632;51.018;4.284;2023-05-19T03:11:15;11.10;99.90
18998;DHT22;9632;51.018;4.284;2023-05-19T03:13:41;11.10;99.90
18998;DHT22;9632;51.018;4.284;2023-05-19T03:16:07;11.10;99.90
18998;DHT22;9632;51.018;4.284;2023-05-19T03:18:33;11.10;99.90
18998;DHT22;9632;51.018;4.284;2023-05-19T03:20:59;11.10;99.90
18998;DHT22;9632;51.018;4.284;2023-05-19T03:23:25;11.10;99.90
18998;DHT22;9632;51.018;4.284;2023-05-19T03:25:51;11.20;99.90
18998;DHT22;9632;51.018;4.284;2023-05-19T03:28:18;11.20;99.90
18998;DHT22;9632;51.018;4.284;2023-05-19T03:30:44;11.20;99.90
18998;DHT22;9632;51.018;4.284;2023-05-19T03:33:10;11.10;99.90
18998;DHT22;9632;51.018;4.284;2023-05-19T03:35:36;11.10;99.90
18998;DHT22;9632;51.018;4.284;2023-05-19T03:38:01;11.10;99.90
18998;DHT22;9632;51.018;4.284;2023-05-19T03:40:27;11.10;99.90
18998;DHT22;9632;51.018;4.284;2023-05-19T03:42:52;11.10;99.90
18998;DHT22;9632;51.018;4.284;2023-05-19T03:45:21;11.10;99.90
18998;DHT22;9632;51.018;4.284;2023-05-19T03:47:47;11.10;99.90
18998;DHT22;9632;51.018;4.284;2023-05-19T03:50:12;11.10;99.90
18998;DHT22;9632;51.018;4.284;2023-05-19T03:52:38;11.10;99.90
18998;DHT22;9632;51.018;4.284;2023-05-19T03:55:05;11.10;99.90
18998;DHT22;9632;51.018;4.284;2023-05-19T03:57:31;11.10;99.90
18998;DHT22;9632;51.018;4.284;2023-05-19T03:59:58;11.10;99.90
18998;DHT22;9632;51.018;4.284;2023-05-19T04:02:23;11.00;99.90
18998;DHT22;9632;51.018;4.284;2023-05-19T04:04:49;11.00;99.90
18998;DHT22;9632;51.018;4.284;2023-05-19T04:07:15;11.00;99.90
18998;DHT22;9632;51.018;4.284;2023-05-19T04:09:41;11.00;99.90
18998;DHT22;9632;51.018;4.284;2023-05-19T04:12:07;11.00;99.90
18998;DHT22;9632;51.018;4.284;2023-05-19T04:14:33;11.00;99.90
18998;DHT22;9632;51.018;4.284;2023-05-19T04:16:58;11.00;99.90
18998;DHT22;9632;51.018;4.284;2023-05-19T04:19:24;11.10;99.90
18998;DHT22;9632;51.018;4.284;2023-05-19T04:21:50;11.00;99.90
18998;DHT22;9632;51.018;4.284;2023-05-19T04:24:15;11.10;99.90
18998;DHT22;9632;51.018;4.284;2023-05-19T04:26:41;11.10;99.90
18998;DHT22;9632;51.018;4.284;2023-05-19T04:29:10;11.20;99.90
18998;DHT22;9632;51.018;4.284;2023-05-19T04:31:39;11.20;99.90
18998;DHT22;9632;51.018;4.284;2023-05-19T04:34:05;11.30;99.90
18998;DHT22;9632;51.018;4.284;2023-05-19T04:36:32;11.40;99.90
18998;DHT22;9632;51.018;4.284;2023-05-19T04:38:58;11.50;99.90
18998;DHT22;9632;51.018;4.284;2023-05-19T04:41:27;11.60;99.90
18998;DHT22;9632;51.018;4.284;2023-05-19T04:43:52;11.70;99.90
18998;DHT22;9632;51.018;4.284;2023-05-19T04:46:18;11.80;99.90
18998;DHT22;9632;51.018;4.284;2023-05-19T04:48:48;11.90;99.90
18998;DHT22;9632;51.018;4.284;2023-05-19T04:51:15;12.20;99.90
18998;DHT22;9632;51.018;4.284;2023-05-19T04:53:42;12.30;99.90
18998;DHT22;9632;51.018;4.284;2023-05-19T04:56:08;12.50;99.90
18998;DHT22;9632;51.018;4.284;2023-05-19T04:58:34;12.60;99.90
18998;DHT22;9632;51.018;4.284;2023-05-19T05:01:00;12.80;99.90
18998;DHT22;9632;51.018;4.284;2023-05-19T05:03:25;12.90;99.90
18998;DHT22;9632;51.018;4.284;2023-05-19T05:05:51;13.10;99.90
18998;DHT22;9632;51.018;4.284;2023-05-19T05:08:17;13.20;99.90
18998;DHT22;9632;51.018;4.284;2023-05-19T05:10:51;13.30;99.90
18998;DHT22;9632;51.018;4.284;2023-05-19T05:13:19;13.50;99.90
18998;DHT22;9632;51.018;4.284;2023-05-19T05:15:45;13.60;99.90
18998;DHT22;9632;51.018;4.284;2023-05-19T05:18:12;13.70;99.90
18998;DHT22;9632;51.018;4.284;2023-05-19T05:20:38;13.80;99.90
18998;DHT22;9632;51.018;4.284;2023-05-19T05:23:04;13.90;99.90
18998;DHT22;9632;51.018;4.284;2023-05-19T05:25:30;14.10;99.90
18998;DHT22;9632;51.018;4.284;2023-05-19T05:27:55;14.20;99.90
18998;DHT22;9632;51.018;4.284;2023-05-19T05:30:23;14.30;99.90
18998;DHT22;9632;51.018;4.284;2023-05-19T05:32:48;14.40;99.90
18998;DHT22;9632;51.018;4.284;2023-05-19T05:35:14;14.40;99.90
18998;DHT22;9632;51.018;4.284;2023-05-19T05:37:40;14.50;99.90
18998;DHT22;9632;51.018;4.284;2023-05-19T05:40:06;14.50;99.90
18998;DHT22;9632;51.018;4.284;2023-05-19T05:42:32;14.60;99.90
18998;DHT22;9632;51.018;4.284;2023-05-19T05:44:58;14.60;99.90
18998;DHT22;9632;51.018;4.284;2023-05-19T05:47:23;14.70;99.90
18998;DHT22;9632;51.018;4.284;2023-05-19T05:49:49;14.80;99.90
18998;DHT22;9632;51.018;4.284;2023-05-19T05:52:17;14.90;99.90
18998;DHT22;9632;51.018;4.284;2023-05-19T05:54:45;15.10;99.90
18998;DHT22;9632;51.018;4.284;2023-05-19T05:57:11;15.20;99.90
18998;DHT22;9632;51.018;4.284;2023-05-19T05:59:37;15.30;99.90
18998;DHT22;9632;51.018;4.284;2023-05-19T06:02:03;15.40;99.90
18998;DHT22;9632;51.018;4.284;2023-05-19T06:04:28;15.40;99.90
18998;DHT22;9632;51.018;4.284;2023-05-19T06:06:55;15.50;99.90
18998;DHT22;9632;51.018;4.284;2023-05-19T06:09:25;15.60;99.90
18998;DHT22;9632;51.018;4.284;2023-05-19T06:11:51;15.70;99.90
18998;DHT22;9632;51.018;4.284;2023-05-19T06:14:16;15.90;99.90
18998;DHT22;9632;51.018;4.284;2023-05-19T06:16:43;15.90;99.90
18998;DHT22;9632;51.018;4.284;2023-05-19T06:19:08;16.10;99.90
18998;DHT22;9632;51.018;4.284;2023-05-19T06:21:34;16.20;99.90
18998;DHT22;9632;51.018;4.284;2023-05-19T06:24:00;16.30;99.90
18998;DHT22;9632;51.018;4.284;2023-05-19T06:26:25;16.40;99.90
18998;DHT22;9632;51.018;4.284;2023-05-19T06:28:51;16.50;99.90
18998;DHT22;9632;51.018;4.284;2023-05-19T06:31:17;16.50;99.90
18998;DHT22;9632;51.018;4.284;2023-05-19T06:33:42;16.60;99.90
18998;DHT22;9632;51.018;4.284;2023-05-19T06:36:08;16.60;99.90
18998;DHT22;9632;51.018;4.284;2023-05-19T06:38:34;16.80;99.90
18998;DHT22;9632;51.018;4.284;2023-05-19T06:41:00;16.80;99.90
18998;DHT22;9632;51.018;4.284;2023-05-19T06:43:26;16.90;99.90
18998;DHT22;9632;51.018;4.284;2023-05-19T06:45:51;17.00;99.90
18998;DHT22;9632;51.018;4.284;2023-05-19T06:48:17;17.20;99.90
18998;DHT22;9632;51.018;4.284;2023-05-19T06:50:43;17.20;99.90
18998;DHT22;9632;51.018;4.284;2023-05-19T06:53:08;17.30;99.90
18998;DHT22;9632;51.018;4.284;2023-05-19T06:55:34;17.50;99.90
18998;DHT22;9632;51.018;4.284;2023-05-19T06:57:59;17.60;99.90
18998;DHT22;9632;51.018;4.284;2023-05-19T07:00:25;17.70;99.90
18998;DHT22;9632;51.018;4.284;2023-05-19T07:02:51;17.70;99.90
18998;DHT22;9632;51.018;4.284;2023-05-19T07:05:16;17.70;99.90
18998;DHT22;9632;51.018;4.284;2023-05-19T07:07:42;17.70;99.90
18998;DHT22;9632;51.018;4.284;2023-05-19T07:10:08;17.80;99.90
18998;DHT22;9632;51.018;4.284;2023-05-19T07:12:34;17.80;99.90
18998;DHT22;9632;51.018;4.284;2023-05-19T07:15:00;17.90;99.90
18998;DHT22;9632;51.018;4.284;2023-05-19T07:17:25;18.00;99.90
18998;DHT22;9632;51.018;4.284;2023-05-19T07:19:51;18.00;99.90
18998;DHT22;9632;51.018;4.284;2023-05-19T07:22:16;18.20;99.90
18998;DHT22;9632;51.018;4.284;2023-05-19T07:24:42;18.20;99.90
18998;DHT22;9632;51.018;4.284;2023-05-19T07:27:08;18.30;99.90
18998;DHT22;9632;51.018;4.284;2023-05-19T07:29:35;18.40;99.90
18998;DHT22;9632;51.018;4.284;2023-05-19T07:32:01;18.50;99.90
18998;DHT22;9632;51.018;4.284;2023-05-19T07:34:26;18.60;99.90
18998;DHT22;9632;51.018;4.284;2023-05-19T07:36:52;18.70;99.90
18998;DHT22;9632;51.018;4.284;2023-05-19T07:39:18;18.80;99.90
18998;DHT22;9632;51.018;4.284;2023-05-19T07:41:43;18.80;99.90
18998;DHT22;9632;51.018;4.284;2023-05-19T07:44:09;18.80;99.90
18998;DHT22;9632;51.018;4.284;2023-05-19T07:46:36;18.80;99.90
18998;DHT22;9632;51.018;4.284;2023-05-19T07:49:02;18.90;99.90
18998;DHT22;9632;51.018;4.284;2023-05-19T07:51:28;19.00;99.90
18998;DHT22;9632;51.018;4.284;2023-05-19T07:53:54;19.00;99.90
18998;DHT22;9632;51.018;4.284;2023-05-19T07:56:20;19.10;99.90
18998;DHT22;9632;51.018;4.284;2023-05-19T07:58:46;19.10;99.90
18998;DHT22;9632;51.018;4.284;2023-05-19T08:01:11;19.00;99.90
18998;DHT22;9632;51.018;4.284;2023-05-19T08:03:37;19.10;99.90
18998;DHT22;9632;51.018;4.284;2023-05-19T08:06:03;19.20;99.90
18998;DHT22;9632;51.018;4.284;2023-05-19T08:08:29;19.30;99.90
18998;DHT22;9632;51.018;4.284;2023-05-19T08:10:54;19.30;99.90
18998;DHT22;9632;51.018;4.284;2023-05-19T08:13:20;19.30;99.90
18998;DHT22;9632;51.018;4.284;2023-05-19T08:15:46;19.40;99.90
18998;DHT22;9632;51.018;4.284;2023-05-19T08:18:12;19.40;99.90
18998;DHT22;9632;51.018;4.284;2023-05-19T08:20:37;19.50;99.90
18998;DHT22;9632;51.018;4.284;2023-05-19T08:23:03;19.60;99.90
18998;DHT22;9632;51.018;4.284;2023-05-19T08:25:29;19.60;99.90
18998;DHT22;9632;51.018;4.284;2023-05-19T08:27:54;19.70;99.90
18998;DHT22;9632;51.018;4.284;2023-05-19T08:30:20;19.60;99.90
18998;DHT22;9632;51.018;4.284;2023-05-19T08:32:46;19.70;99.90
18998;DHT22;9632;51.018;4.284;2023-05-19T08:35:12;19.70;99.90
18998;DHT22;9632;51.018;4.284;2023-05-19T08:37:38;19.70;99.90
18998;DHT22;9632;51.018;4.284;2023-05-19T08:40:05;19.80;99.90
18998;DHT22;9632;51.018;4.284;2023-05-19T08:42:33;19.90;99.90
18998;DHT22;9632;51.018;4.284;2023-05-19T08:44:59;19.90;99.90
18998;DHT22;9632;51.018;4.284;2023-05-19T08:47:26;20.00;99.90
18998;DHT22;9632;51.018;4.284;2023-05-19T08:49:59;20.00;99.90
18998;DHT22;9632;51.018;4.284;2023-05-19T08:52:50;20.00;99.90
18998;DHT22;9632;51.018;4.284;2023-05-19T08:57:50;20.10;99.90
18998;DHT22;9632;51.018;4.284;2023-05-19T09:00:17;20.10;99.90
18998;DHT22;9632;51.018;4.284;2023-05-19T09:02:46;20.00;99.90
18998;DHT22;9632;51.018;4.284;2023-05-19T09:05:13;20.10;99.90
18998;DHT22;9632;51.018;4.284;2023-05-19T09:07:43;20.10;99.90
18998;DHT22;9632;51.018;4.284;2023-05-19T09:10:09;20.20;99.90
18998;DHT22;9632;51.018;4.284;2023-05-19T09:12:40;20.30;99.90
18998;DHT22;9632;51.018;4.284;2023-05-19T09:15:08;20.40;99.90
18998;DHT22;9632;51.018;4.284;2023-05-19T09:17:34;20.50;99.90
18998;DHT22;9632;51.018;4.284;2023-05-19T09:20:02;20.60;99.90
18998;DHT22;9632;51.018;4.284;2023-05-19T09:22:29;20.70;99.90
18998;DHT22;9632;51.018;4.284;2023-05-19T09:24:56;20.70;99.90
18998;DHT22;9632;51.018;4.284;2023-05-19T09:27:21;20.70;99.90
18998;DHT22;9632;51.018;4.284;2023-05-19T09:29:50;20.70;99.90
18998;DHT22;9632;51.018;4.284;2023-05-19T09:32:26;20.80;99.90
18998;DHT22;9632;51.018;4.284;2023-05-19T09:34:55;20.80;99.90
18998;DHT22;9632;51.018;4.284;2023-05-19T09:37:22;20.80;99.90
18998;DHT22;9632;51.018;4.284;2023-05-19T09:39:48;20.80;99.90
18998;DHT22;9632;51.018;4.284;2023-05-19T09:42:24;20.90;99.90
18998;DHT22;9632;51.018;4.284;2023-05-19T09:44:58;20.90;99.90
18998;DHT22;9632;51.018;4.284;2023-05-19T09:47:25;21.00;99.90
18998;DHT22;9632;51.018;4.284;2023-05-19T09:49:52;21.00;99.90
18998;DHT22;9632;51.018;4.284;2023-05-19T09:52:18;21.00;99.90
18998;DHT22;9632;51.018;4.284;2023-05-19T09:54:46;21.00;99.90
18998;DHT22;9632;51.018;4.284;2023-05-19T09:57:12;21.00;99.90
18998;DHT22;9632;51.018;4.284;2023-05-19T09:59:38;21.00;99.90
18998;DHT22;9632;51.018;4.284;2023-05-19T10:02:05;21.10;99.90
18998;DHT22;9632;51.018;4.284;2023-05-19T10:04:36;21.20;99.90
18998;DHT22;9632;51.018;4.284;2023-05-19T10:07:02;21.20;99.90
18998;DHT22;9632;51.018;4.284;2023-05-19T10:09:30;21.20;99.90
18998;DHT22;9632;51.018;4.284;2023-05-19T10:11:57;21.30;99.90
18998;DHT22;9632;51.018;4.284;2023-05-19T10:14:24;21.20;99.90
18998;DHT22;9632;51.018;4.284;2023-05-19T10:16:51;21.10;99.90
18998;DHT22;9632;51.018;4.284;2023-05-19T10:19:22;21.10;99.90
18998;DHT22;9632;51.018;4.284;2023-05-19T10:21:48;21.20;99.90
18998;DHT22;9632;51.018;4.284;2023-05-19T10:24:14;21.20;99.90
18998;DHT22;9632;51.018;4.284;2023-05-19T10:29:27;21.20;99.90
18998;DHT22;9632;51.018;4.284;2023-05-19T10:31:55;21.20;99.90
18998;DHT22;9632;51.018;4.284;2023-05-19T10:37:24;21.20;99.90
18998;DHT22;9632;51.018;4.284;2023-05-19T10:39:54;21.20;99.90
18998;DHT22;9632;51.018;4.284;2023-05-19T10:42:35;21.30;99.90
18998;DHT22;9632;51.018;4.284;2023-05-19T10:45:21;21.40;99.80
18998;DHT22;9632;51.018;4.284;2023-05-19T10:47:49;21.40;99.00
18998;DHT22;9632;51.018;4.284;2023-05-19T10:50:16;21.30;99.40
18998;DHT22;9632;51.018;4.284;2023-05-19T10:52:41;21.40;99.90
18998;DHT22;9632;51.018;4.284;2023-05-19T10:55:11;21.30;98.60
18998;DHT22;9632;51.018;4.284;2023-05-19T10:57:54;21.40;98.90
18998;DHT22;9632;51.018;4.284;2023-05-19T11:00:29;21.50;99.40
18998;DHT22;9632;51.018;4.284;2023-05-19T11:03:14;21.50;99.10
18998;DHT22;9632;51.018;4.284;2023-05-19T11:05:40;21.60;99.90
18998;DHT22;9632;51.018;4.284;2023-05-19T11:08:10;21.60;97.80
18998;DHT22;9632;51.018;4.284;2023-05-19T11:10:36;21.60;98.70
18998;DHT22;9632;51.018;4.284;2023-05-19T11:13:03;21.50;99.10
18998;DHT22;9632;51.018;4.284;2023-05-19T11:15:33;21.50;98.80
18998;DHT22;9632;51.018;4.284;2023-05-19T11:18:00;21.50;99.70
18998;DHT22;9632;51.018;4.284;2023-05-19T11:20:27;21.50;98.90
18998;DHT22;9632;51.018;4.284;2023-05-19T11:23:07;21.40;98.90
18998;DHT22;9632;51.018;4.284;2023-05-19T11:25:43;21.40;98.00
18998;DHT22;9632;51.018;4.284;2023-05-19T11:28:15;21.30;98.50
18998;DHT22;9632;51.018;4.284;2023-05-19T11:30:42;21.30;99.00
18998;DHT22;9632;51.018;4.284;2023-05-19T11:33:08;21.40;98.40
18998;DHT22;9632;51.018;4.284;2023-05-19T11:35:35;21.30;96.50
18998;DHT22;9632;51.018;4.284;2023-05-19T11:38:01;21.40;96.90
18998;DHT22;9632;51.018;4.284;2023-05-19T11:40:28;21.40;99.20
18998;DHT22;9632;51.018;4.284;2023-05-19T11:42:54;21.40;97.90
18998;DHT22;9632;51.018;4.284;2023-05-19T11:45:30;21.40;98.00
18998;DHT22;9632;51.018;4.284;2023-05-19T11:47:56;21.40;96.70
18998;DHT22;9632;51.018;4.284;2023-05-19T11:50:23;21.30;99.20
18998;DHT22;9632;51.018;4.284;2023-05-19T11:52:50;21.40;98.50
18998;DHT22;9632;51.018;4.284;2023-05-19T11:55:17;21.50;99.00
18998;DHT22;9632;51.018;4.284;2023-05-19T11:57:58;21.50;96.80
18998;DHT22;9632;51.018;4.284;2023-05-19T12:00:25;21.60;96.00
18998;DHT22;9632;51.018;4.284;2023-05-19T12:02:51;21.60;97.20
18998;DHT22;9632;51.018;4.284;2023-05-19T12:05:21;21.60;97.60
18998;DHT22;9632;51.018;4.284;2023-05-19T12:07:47;21.70;97.20
18998;DHT22;9632;51.018;4.284;2023-05-19T12:10:25;21.60;98.20
18998;DHT22;9632;51.018;4.284;2023-05-19T12:12:52;21.70;97.10
18998;DHT22;9632;51.018;4.284;2023-05-19T12:15:21;21.70;96.20
18998;DHT22;9632;51.018;4.284;2023-05-19T12:17:55;21.70;96.40
18998;DHT22;9632;51.018;4.284;2023-05-19T12:20:22;21.70;96.50
18998;DHT22;9632;51.018;4.284;2023-05-19T12:22:48;21.70;96.10
18998;DHT22;9632;51.018;4.284;2023-05-19T12:25:17;21.70;97.30
18998;DHT22;9632;51.018;4.284;2023-05-19T12:27:43;21.80;97.20
18998;DHT22;9632;51.018;4.284;2023-05-19T12:30:10;21.80;97.10
18998;DHT22;9632;51.018;4.284;2023-05-19T12:32:37;21.80;96.30
18998;DHT22;9632;51.018;4.284;2023-05-19T12:35:03;21.60;96.60
18998;DHT22;9632;51.018;4.284;2023-05-19T12:37:30;21.60;96.50
18998;DHT22;9632;51.018;4.284;2023-05-19T12:39:58;21.70;95.90
18998;DHT22;9632;51.018;4.284;2023-05-19T12:42:28;21.70;94.90
18998;DHT22;9632;51.018;4.284;2023-05-19T12:44:58;21.70;96.00
18998;DHT22;9632;51.018;4.284;2023-05-19T12:47:34;21.80;96.40
18998;DHT22;9632;51.018;4.284;2023-05-19T12:50:02;21.90;96.70
18998;DHT22;9632;51.018;4.284;2023-05-19T12:52:29;22.00;96.70
18998;DHT22;9632;51.018;4.284;2023-05-19T12:55:05;22.10;95.10
18998;DHT22;9632;51.018;4.284;2023-05-19T12:57:36;22.10;94.80
18998;DHT22;9632;51.018;4.284;2023-05-19T13:02:41;22.00;94.20
18998;DHT22;9632;51.018;4.284;2023-05-19T13:05:19;22.00;93.30
18998;DHT22;9632;51.018;4.284;2023-05-19T13:10:21;21.90;94.10
18998;DHT22;9632;51.018;4.284;2023-05-19T13:12:47;22.00;93.40
18998;DHT22;9632;51.018;4.284;2023-05-19T13:15:15;21.90;92.80
18998;DHT22;9632;51.018;4.284;2023-05-19T13:17:41;21.90;93.40
18998;DHT22;9632;51.018;4.284;2023-05-19T13:20:07;21.90;92.50
18998;DHT22;9632;51.018;4.284;2023-05-19T13:22:33;21.90;92.50
18998;DHT22;9632;51.018;4.284;2023-05-19T13:24:58;21.90;91.70
18998;DHT22;9632;51.018;4.284;2023-05-19T13:27:26;21.80;92.50
18998;DHT22;9632;51.018;4.284;2023-05-19T13:29:52;21.90;93.90
18998;DHT22;9632;51.018;4.284;2023-05-19T13:32:17;21.90;93.90
18998;DHT22;9632;51.018;4.284;2023-05-19T13:34:43;21.90;92.40
18998;DHT22;9632;51.018;4.284;2023-05-19T13:37:08;21.90;93.60
18998;DHT22;9632;51.018;4.284;2023-05-19T13:39:36;22.00;93.90
18998;DHT22;9632;51.018;4.284;2023-05-19T13:42:02;22.00;93.20
18998;DHT22;9632;51.018;4.284;2023-05-19T13:44:29;22.10;93.70
18998;DHT22;9632;51.018;4.284;2023-05-19T13:46:55;22.00;91.90
18998;DHT22;9632;51.018;4.284;2023-05-19T13:49:23;22.00;91.80
18998;DHT22;9632;51.018;4.284;2023-05-19T13:51:49;22.00;91.90
18998;DHT22;9632;51.018;4.284;2023-05-19T13:54:16;21.80;91.80
18998;DHT22;9632;51.018;4.284;2023-05-19T13:56:42;21.80;91.40
18998;DHT22;9632;51.018;4.284;2023-05-19T13:59:10;21.80;92.30
18998;DHT22;9632;51.018;4.284;2023-05-19T14:01:35;21.90;93.00
18998;DHT22;9632;51.018;4.284;2023-05-19T14:04:01;21.80;93.40
18998;DHT22;9632;51.018;4.284;2023-05-19T14:06:27;21.80;91.80
18998;DHT22;9632;51.018;4.284;2023-05-19T14:08:52;21.80;92.20
18998;DHT22;9632;51.018;4.284;2023-05-19T14:11:19;21.80;91.90
18998;DHT22;9632;51.018;4.284;2023-05-19T14:13:47;21.80;92.20
18998;DHT22;9632;51.018;4.284;2023-05-19T14:16:13;21.80;91.20
18998;DHT22;9632;51.018;4.284;2023-05-19T14:18:39;21.80;90.90
18998;DHT22;9632;51.018;4.284;2023-05-19T14:21:05;21.80;92.10
18998;DHT22;9632;51.018;4.284;2023-05-19T14:23:30;21.80;92.10
18998;DHT22;9632;51.018;4.284;2023-05-19T14:25:56;21.90;93.40
18998;DHT22;9632;51.018;4.284;2023-05-19T14:28:22;22.00;92.90
18998;DHT22;9632;51.018;4.284;2023-05-19T14:30:47;22.00;91.90
18998;DHT22;9632;51.018;4.284;2023-05-19T14:33:13;22.00;91.30
18998;DHT22;9632;51.018;4.284;2023-05-19T14:35:39;22.00;91.80
18998;DHT22;9632;51.018;4.284;2023-05-19T14:38:05;22.00;92.50
18998;DHT22;9632;51.018;4.284;2023-05-19T14:40:31;21.90;91.00
18998;DHT22;9632;51.018;4.284;2023-05-19T14:42:56;21.90;90.20
18998;DHT22;9632;51.018;4.284;2023-05-19T14:45:22;21.90;91.00
18998;DHT22;9632;51.018;4.284;2023-05-19T14:47:48;21.90;92.30
18998;DHT22;9632;51.018;4.284;2023-05-19T14:50:13;21.90;92.40
18998;DHT22;9632;51.018;4.284;2023-05-19T14:52:39;21.90;91.30
18998;DHT22;9632;51.018;4.284;2023-05-19T14:55:05;21.90;92.10
18998;DHT22;9632;51.018;4.284;2023-05-19T14:57:31;21.90;92.10
18998;DHT22;9632;51.018;4.284;2023-05-19T14:59:57;21.90;92.20
18998;DHT22;9632;51.018;4.284;2023-05-19T15:02:22;21.90;90.70
18998;DHT22;9632;51.018;4.284;2023-05-19T15:04:48;21.90;90.50
18998;DHT22;9632;51.018;4.284;2023-05-19T15:07:14;21.90;91.80
18998;DHT22;9632;51.018;4.284;2023-05-19T15:09:39;21.90;90.20
18998;DHT22;9632;51.018;4.284;2023-05-19T15:12:05;21.90;90.30
18998;DHT22;9632;51.018;4.284;2023-05-19T15:14:31;21.90;90.10
18998;DHT22;9632;51.018;4.284;2023-05-19T15:16:58;21.80;89.10
18998;DHT22;9632;51.018;4.284;2023-05-19T15:19:23;21.80;90.00
18998;DHT22;9632;51.018;4.284;2023-05-19T15:21:49;21.80;89.70
18998;DHT22;9632;51.018;4.284;2023-05-19T15:24:15;21.80;89.60
18998;DHT22;9632;51.018;4.284;2023-05-19T15:26:40;21.80;88.20
18998;DHT22;9632;51.018;4.284;2023-05-19T15:29:06;21.60;88.10
18998;DHT22;9632;51.018;4.284;2023-05-19T15:31:32;21.60;89.10
18998;DHT22;9632;51.018;4.284;2023-05-19T15:33:57;21.50;87.40
18998;DHT22;9632;51.018;4.284;2023-05-19T15:36:23;21.50;87.80
18998;DHT22;9632;51.018;4.284;2023-05-19T15:38:49;21.50;87.90
18998;DHT22;9632;51.018;4.284;2023-05-19T15:41:14;21.40;88.50
18998;DHT22;9632;51.018;4.284;2023-05-19T15:43:40;21.40;88.90
18998;DHT22;9632;51.018;4.284;2023-05-19T15:46:06;21.40;88.50
18998;DHT22;9632;51.018;4.284;2023-05-19T15:48:34;21.30;88.90
18998;DHT22;9632;51.018;4.284;2023-05-19T15:51:00;21.40;90.00
18998;DHT22;9632;51.018;4.284;2023-05-19T15:53:26;21.40;90.20
18998;DHT22;9632;51.018;4.284;2023-05-19T15:55:51;21.40;90.70
18998;DHT22;9632;51.018;4.284;2023-05-19T15:58:17;21.40;91.80
18998;DHT22;9632;51.018;4.284;2023-05-19T16:00:43;21.50;90.70
18998;DHT22;9632;51.018;4.284;2023-05-19T16:03:08;21.50;91.40
18998;DHT22;9632;51.018;4.284;2023-05-19T16:05:34;21.40;91.70
18998;DHT22;9632;51.018;4.284;2023-05-19T16:08:00;21.40;91.80
18998;DHT22;9632;51.018;4.284;2023-05-19T16:10:25;21.40;92.20
18998;DHT22;9632;51.018;4.284;2023-05-19T16:12:51;21.50;91.80
18998;DHT22;9632;51.018;4.284;2023-05-19T16:15:17;21.50;92.10